createdAt,value
2018-05-16T00:02:11.237Z,11.63
2018-05-16T00:04:38.035Z,11.70
2018-05-16T00:07:05.727Z,13.20
2018-05-16T00:09:32.402Z,16.17
2018-05-16T00:11:59.118Z,12.60
2018-05-16T00:14:25.864Z,14.93
2018-05-16T00:16:53.316Z,12.60
2018-05-16T00:19:19.957Z,16.33
2018-05-16T00:21:46.801Z,11.90
2018-05-16T00:24:13.571Z,13.87
2018-05-16T00:26:40.916Z,16.23
2018-05-16T00:29:07.760Z,16.87
2018-05-16T00:31:34.395Z,13.27
2018-05-16T00:34:01.285Z,16.23
2018-05-16T00:36:27.945Z,14.63
2018-05-16T00:38:54.846Z,14.43
2018-05-16T00:41:21.473Z,14.23
2018-05-16T00:43:48.883Z,12.80
2018-05-16T00:46:15.639Z,12.13
2018-05-16T00:48:42.390Z,12.23
2018-05-16T00:51:28.369Z,13.53
2018-05-16T00:53:55.015Z,14.43
2018-05-16T00:56:21.919Z,11.00
2018-05-16T00:58:48.561Z,11.10
2018-05-16T01:01:15.732Z,12.27
2018-05-16T01:03:42.850Z,14.20
2018-05-16T01:06:09.598Z,14.83
2018-05-16T01:08:36.993Z,13.07
2018-05-16T01:11:03.627Z,13.83
2018-05-16T01:13:30.446Z,11.70
2018-05-16T01:15:57.117Z,13.33
2018-05-16T01:18:23.870Z,15.53
2018-05-16T01:20:50.510Z,13.73
2018-05-16T01:23:18.229Z,12.97
2018-05-16T01:25:45.501Z,9.50
2018-05-16T01:28:12.136Z,15.13
2018-05-16T01:30:38.917Z,13.10
2018-05-16T01:33:06.969Z,7.57
2018-05-16T01:35:33.878Z,8.73
2018-05-16T01:38:00.514Z,7.37
2018-05-16T01:40:27.158Z,8.47
2018-05-16T01:42:53.814Z,11.07
2018-05-16T01:45:20.692Z,9.30
2018-05-16T01:47:47.485Z,7.40
2018-05-16T01:50:14.302Z,11.00
2018-05-16T01:52:41.539Z,8.80
2018-05-16T01:55:08.889Z,6.77
2018-05-16T01:57:35.793Z,8.87
2018-05-16T02:00:02.442Z,9.63
2018-05-16T02:02:29.293Z,8.23
2018-05-16T02:04:55.989Z,6.13
2018-05-16T02:07:22.805Z,7.10
2018-05-16T02:09:50.817Z,6.37
2018-05-16T02:12:18.134Z,7.07
2018-05-16T02:14:45.521Z,8.60
2018-05-16T02:17:12.180Z,6.57
2018-05-16T02:19:38.792Z,8.37
2018-05-16T02:22:06.371Z,7.40
2018-05-16T02:24:33.433Z,8.23
2018-05-16T02:27:00.196Z,6.90
2018-05-16T02:29:27.899Z,5.20
2018-05-16T02:31:56.165Z,5.20
2018-05-16T02:34:22.981Z,6.83
2018-05-16T02:36:50.433Z,5.63
2018-05-16T02:39:17.096Z,6.27
2018-05-16T02:41:44.587Z,8.57
2018-05-16T02:44:11.280Z,7.90
2018-05-16T02:46:38.168Z,6.13
2018-05-16T02:49:04.798Z,5.30
2018-05-16T02:51:31.460Z,6.67
2018-05-16T02:53:59.003Z,7.37
2018-05-16T02:56:25.652Z,7.77
2018-05-16T02:58:52.254Z,7.97
2018-05-16T03:01:18.997Z,10.10
2018-05-16T03:03:45.644Z,7.07
2018-05-16T03:06:12.326Z,5.80
2018-05-16T03:08:39.949Z,7.07
2018-05-16T03:11:06.732Z,5.37
2018-05-16T03:13:33.378Z,4.93
2018-05-16T03:16:00.110Z,5.27
2018-05-16T03:18:26.754Z,7.83
2018-05-16T03:20:53.416Z,8.17
2018-05-16T03:23:20.924Z,5.33
2018-05-16T03:25:47.543Z,4.97
2018-05-16T03:28:14.194Z,6.87
2018-05-16T03:30:40.877Z,7.60
2018-05-16T03:33:07.681Z,7.00
2018-05-16T03:35:35.152Z,9.57
2018-05-16T03:38:02.820Z,6.47
2018-05-16T03:40:30.269Z,6.17
2018-05-16T03:42:57.288Z,7.63
2018-05-16T03:45:23.897Z,6.70
2018-05-16T03:47:51.408Z,8.93
2018-05-16T03:50:18.041Z,5.13
2018-05-16T03:52:44.680Z,6.13
2018-05-16T03:55:12.238Z,5.23
2018-05-16T04:01:04.075Z,7.60
2018-05-16T04:03:48.988Z,8.97
2018-05-16T04:06:16.405Z,5.87
2018-05-16T04:08:43.842Z,5.87
2018-05-16T04:11:10.545Z,8.47
2018-05-16T04:13:38.147Z,6.60
2018-05-16T04:16:05.615Z,8.27
2018-05-16T04:18:32.281Z,5.90
2018-05-16T04:20:59.029Z,7.50
2018-05-16T04:23:26.388Z,7.50
2018-05-16T04:25:54.112Z,5.83
2018-05-16T04:28:21.010Z,5.93
2018-05-16T04:30:49.253Z,7.43
2018-05-16T04:33:15.932Z,6.13
2018-05-16T04:35:42.706Z,7.97
2018-05-16T04:38:09.373Z,8.97
2018-05-16T04:40:36.850Z,9.50
2018-05-16T04:43:04.143Z,7.57
2018-05-16T04:45:31.499Z,5.77
2018-05-16T04:47:59.755Z,9.17
2018-05-16T04:50:26.372Z,11.17
2018-05-16T04:52:53.360Z,8.00
2018-05-16T04:55:20.825Z,10.63
2018-05-16T04:57:48.309Z,8.73
2018-05-16T05:00:15.129Z,7.60
2018-05-16T05:02:41.777Z,10.73
2018-05-16T05:05:08.550Z,7.07
2018-05-16T05:07:35.195Z,10.93
2018-05-16T05:10:01.869Z,10.30
2018-05-16T05:12:29.266Z,9.43
2018-05-16T05:14:55.916Z,10.30
2018-05-16T05:17:22.637Z,7.10
2018-05-16T05:19:49.412Z,6.93
2018-05-16T05:22:16.279Z,10.00
2018-05-16T05:24:42.909Z,8.93
2018-05-16T05:27:09.586Z,7.80
2018-05-16T05:29:36.229Z,8.20
2018-05-16T05:32:02.844Z,12.33
2018-05-16T05:34:30.264Z,9.30
2018-05-16T05:36:56.993Z,8.77
2018-05-16T05:39:23.636Z,10.10
2018-05-16T05:41:50.367Z,11.47
2018-05-16T05:44:17.021Z,10.80
2018-05-16T05:46:43.657Z,10.27
2018-05-16T05:49:10.397Z,7.93
2018-05-16T05:51:37.764Z,10.40
2018-05-16T05:54:05.905Z,10.67
2018-05-16T05:56:32.777Z,12.57
2018-05-16T05:59:00.090Z,7.37
2018-05-16T06:01:26.769Z,9.47
2018-05-16T06:03:54.164Z,12.87
2018-05-16T06:06:21.661Z,10.27
2018-05-16T06:08:48.992Z,6.03
2018-05-16T06:11:16.552Z,8.33
2018-05-16T06:13:43.305Z,8.57
2018-05-16T06:16:09.978Z,8.57
2018-05-16T06:18:36.638Z,8.33
2018-05-16T06:21:03.477Z,8.00
2018-05-16T06:23:30.134Z,8.77
2018-05-16T06:25:57.549Z,7.13
2018-05-16T06:28:24.323Z,7.17
2018-05-16T06:30:51.730Z,9.07
2018-05-16T06:33:18.388Z,8.87
2018-05-16T06:35:45.229Z,8.10
2018-05-16T06:38:11.910Z,6.47
2018-05-16T06:40:39.291Z,7.50
2018-05-16T06:43:06.084Z,7.50
2018-05-16T06:45:32.726Z,11.97
2018-05-16T06:47:59.376Z,8.37
2018-05-16T06:50:27.197Z,10.03
2018-05-16T06:52:53.857Z,9.53
2018-05-16T06:55:21.228Z,8.13
2018-05-16T06:57:47.883Z,11.07
2018-05-16T07:00:15.272Z,9.23
2018-05-16T07:02:41.914Z,10.00
2018-05-16T07:05:08.556Z,11.97
2018-05-16T07:07:35.181Z,10.03
2018-05-16T07:10:01.796Z,14.37
2018-05-16T07:12:29.208Z,9.63
2018-05-16T07:14:55.981Z,19.20
2018-05-16T07:17:23.343Z,18.73
2018-05-16T07:19:50.767Z,14.97
2018-05-16T07:22:17.378Z,14.13
2018-05-16T07:24:44.092Z,15.70
2018-05-16T07:27:10.714Z,11.20
2018-05-16T07:29:38.313Z,14.90
2018-05-16T07:32:05.027Z,12.70
2018-05-16T07:34:31.701Z,13.17
2018-05-16T07:36:58.411Z,15.30
2018-05-16T07:39:25.968Z,16.40
2018-05-16T07:41:52.596Z,15.07
2018-05-16T07:44:19.319Z,12.07
2018-05-16T07:46:46.215Z,13.27
2018-05-16T07:49:12.899Z,12.60
2018-05-16T07:51:39.582Z,13.57
2018-05-16T07:54:06.237Z,12.90
2018-05-16T07:56:33.030Z,11.47
2018-05-16T07:58:59.870Z,12.77
2018-05-16T08:01:26.557Z,11.50
2018-05-16T08:03:53.213Z,10.70
2018-05-16T08:06:19.979Z,11.50
2018-05-16T08:08:46.674Z,16.23
2018-05-16T08:11:14.109Z,10.50
2018-05-16T08:13:40.852Z,16.80
2018-05-16T08:16:07.493Z,11.60
2018-05-16T08:18:34.210Z,15.10
2018-05-16T08:21:01.593Z,10.83
2018-05-16T08:23:28.435Z,10.50
2018-05-16T08:25:55.200Z,14.20
2018-05-16T08:28:21.924Z,10.70
2018-05-16T08:30:49.428Z,13.33
2018-05-16T08:33:23.196Z,11.93
2018-05-16T08:35:50.001Z,14.67
2018-05-16T08:38:17.430Z,10.23
2018-05-16T08:40:44.129Z,14.53
2018-05-16T08:43:10.828Z,11.57
2018-05-16T08:45:37.600Z,11.53
2018-05-16T08:48:04.301Z,14.47
2018-05-16T08:50:30.992Z,10.07
2018-05-16T08:52:57.736Z,9.80
2018-05-16T08:55:24.636Z,12.50
2018-05-16T08:57:52.924Z,9.10
2018-05-16T09:00:20.389Z,13.23
2018-05-16T09:02:47.873Z,10.53
2018-05-16T09:05:14.524Z,10.23
2018-05-16T09:07:41.377Z,12.43
2018-05-16T09:10:08.039Z,17.70
2018-05-16T09:12:34.792Z,12.00
2018-05-16T09:15:01.461Z,18.57
2018-05-16T09:17:28.172Z,16.13
2018-05-16T09:19:54.790Z,16.20
2018-05-16T09:22:21.769Z,10.87
2018-05-16T09:24:49.725Z,14.40
2018-05-16T09:27:17.181Z,11.27
2018-05-16T09:29:44.568Z,14.07
2018-05-16T09:32:11.380Z,9.60
2018-05-16T09:34:38.158Z,13.73
2018-05-16T09:37:04.789Z,7.80
2018-05-16T09:39:31.575Z,8.10
2018-05-16T09:41:58.236Z,7.90
2018-05-16T09:44:24.905Z,10.13
2018-05-16T09:46:51.665Z,12.23
2018-05-16T09:49:18.281Z,10.00
2018-05-16T09:51:45.027Z,9.27
2018-05-16T09:54:11.686Z,8.43
2018-05-16T09:56:38.585Z,8.27
2018-05-16T09:59:05.256Z,16.57
2018-05-16T10:01:31.968Z,12.53
2018-05-16T10:03:59.552Z,9.07
2018-05-16T10:06:26.172Z,10.67
2018-05-16T10:08:53.553Z,9.00
2018-05-16T10:11:20.433Z,11.80
2018-05-16T10:13:47.049Z,12.37
2018-05-16T10:16:13.797Z,9.13
2018-05-16T10:18:40.595Z,10.00
2018-05-16T10:21:07.978Z,9.87
2018-05-16T10:23:34.641Z,10.73
2018-05-16T10:26:01.359Z,8.80
2018-05-16T10:28:28.371Z,12.33
2018-05-16T10:30:55.743Z,11.73
2018-05-16T10:33:22.417Z,12.20
2018-05-16T10:35:49.097Z,10.50
2018-05-16T10:38:16.540Z,10.20
2018-05-16T10:40:43.428Z,8.80
2018-05-16T10:43:10.089Z,8.93
2018-05-16T10:45:36.832Z,12.37
2018-05-16T10:48:03.516Z,15.60
2018-05-16T10:50:30.222Z,13.83
2018-05-16T10:52:56.969Z,10.50
2018-05-16T10:55:23.699Z,12.70
2018-05-16T10:57:50.358Z,10.70
2018-05-16T11:00:16.971Z,11.40
2018-05-16T11:02:43.630Z,10.53
2018-05-16T11:05:10.463Z,8.47
2018-05-16T11:07:37.233Z,9.57
2018-05-16T11:10:03.947Z,7.10
2018-05-16T11:12:30.725Z,13.30
2018-05-16T11:14:58.147Z,11.67
2018-05-16T11:17:24.802Z,10.10
2018-05-16T11:19:52.167Z,8.23
2018-05-16T11:22:19.041Z,10.77
2018-05-16T11:24:46.462Z,10.37
2018-05-16T11:27:13.118Z,11.13
2018-05-16T11:29:40.522Z,10.10
2018-05-16T11:32:07.227Z,12.20
2018-05-16T11:34:33.928Z,9.53
2018-05-16T11:37:00.598Z,7.90
2018-05-16T11:39:28.250Z,10.47
2018-05-16T11:41:55.705Z,9.50
2018-05-16T11:44:23.257Z,13.77
2018-05-16T11:46:49.927Z,8.57
2018-05-16T11:49:17.340Z,16.17
2018-05-16T11:51:44.135Z,11.13
2018-05-16T11:54:10.813Z,8.03
2018-05-16T11:56:37.476Z,9.83
2018-05-16T11:59:04.862Z,9.73
2018-05-16T12:01:32.290Z,8.90
2018-05-16T12:03:58.965Z,17.43
2018-05-16T12:06:25.598Z,11.67
2018-05-16T12:08:52.422Z,8.00
2018-05-16T12:11:19.876Z,10.77
2018-05-16T12:13:47.330Z,9.23
2018-05-16T12:16:14.719Z,8.27
2018-05-16T12:18:41.515Z,9.50
2018-05-16T12:21:08.149Z,10.90
2018-05-16T12:23:34.818Z,11.73
2018-05-16T12:26:02.504Z,12.40
2018-05-16T12:28:29.193Z,6.97
2018-05-16T12:30:55.913Z,13.03
2018-05-16T12:33:22.702Z,11.13
2018-05-16T12:35:50.157Z,5.93
2018-05-16T12:38:17.544Z,13.13
2018-05-16T12:40:44.500Z,6.47
2018-05-16T12:43:16.296Z,10.07
2018-05-16T12:45:42.947Z,6.93
2018-05-16T12:48:09.688Z,11.13
2018-05-16T12:50:37.121Z,10.57
2018-05-16T12:53:03.870Z,8.70
2018-05-16T12:55:32.074Z,10.97
2018-05-16T12:57:59.512Z,8.67
2018-05-16T13:00:26.180Z,10.93
2018-05-16T13:02:53.561Z,9.73
2018-05-16T13:05:20.262Z,12.03
2018-05-16T13:07:47.836Z,8.00
2018-05-16T13:10:15.272Z,6.43
2018-05-16T13:12:42.672Z,8.37
2018-05-16T13:15:09.386Z,13.60
2018-05-16T13:17:36.904Z,9.07
2018-05-16T13:20:03.580Z,9.07
2018-05-16T13:22:30.957Z,8.57
2018-05-16T13:24:57.735Z,8.07
2018-05-16T13:27:24.471Z,14.27
2018-05-16T13:29:51.124Z,6.43
2018-05-16T13:32:17.865Z,7.77
2018-05-16T13:34:44.606Z,10.00
2018-05-16T13:37:11.306Z,10.53
2018-05-16T13:39:38.181Z,14.83
2018-05-16T13:42:04.891Z,12.73
2018-05-16T13:44:31.529Z,11.50
2018-05-16T13:46:58.268Z,12.30
2018-05-16T13:49:24.899Z,10.97
2018-05-16T13:51:52.568Z,8.80
2018-05-16T13:54:19.379Z,11.70
2018-05-16T13:56:46.968Z,9.13
2018-05-16T13:59:15.491Z,14.47
2018-05-16T14:01:42.121Z,11.27
2018-05-16T14:04:08.904Z,10.90
2018-05-16T14:06:35.965Z,15.60
2018-05-16T14:09:02.475Z,12.87
2018-05-16T14:11:29.915Z,12.93
2018-05-16T14:13:56.627Z,15.87
2018-05-16T14:16:23.300Z,15.43
2018-05-16T14:18:49.944Z,17.03
2018-05-16T14:21:16.648Z,18.37
2018-05-16T14:23:43.302Z,14.37
2018-05-16T14:26:10.167Z,13.90
2018-05-16T14:28:36.865Z,15.97
2018-05-16T14:31:03.502Z,14.57
2018-05-16T14:33:30.294Z,16.50
2018-05-16T14:35:57.150Z,19.00
2018-05-16T14:38:24.817Z,18.90
2018-05-16T14:40:52.347Z,23.30
2018-05-16T14:43:19.000Z,21.80
2018-05-16T14:45:46.381Z,17.00
2018-05-16T14:48:13.025Z,23.97
2018-05-16T14:50:39.737Z,23.77
2018-05-16T14:53:06.352Z,22.20
2018-05-16T14:55:33.278Z,22.90
2018-05-16T14:58:00.725Z,21.20
2018-05-16T15:00:27.393Z,27.70
2018-05-16T15:02:54.110Z,25.43
2018-05-16T15:05:20.850Z,26.97
2018-05-16T15:07:47.507Z,20.30
2018-05-16T15:10:14.191Z,23.50
2018-05-16T15:12:41.805Z,22.70
2018-05-16T15:15:08.453Z,20.03
2018-05-16T15:17:35.297Z,22.00
2018-05-16T15:20:01.977Z,21.93
2018-05-16T15:22:29.357Z,22.63
2018-05-16T15:24:56.164Z,21.60
2018-05-16T15:27:24.125Z,21.07
2018-05-16T15:29:51.556Z,20.77
2018-05-16T15:32:18.213Z,23.77
2018-05-16T15:34:44.956Z,20.87
2018-05-16T15:37:12.365Z,20.17
2018-05-16T15:39:39.133Z,19.73
2018-05-16T15:42:05.813Z,19.60
2018-05-16T15:44:33.213Z,17.23
2018-05-16T15:46:59.913Z,18.77
2018-05-16T15:49:27.462Z,20.77
2018-05-16T15:51:54.868Z,22.00
2018-05-16T15:54:22.734Z,21.00
2018-05-16T15:56:49.470Z,18.03
2018-05-16T15:59:16.094Z,23.10
2018-05-16T16:01:42.787Z,23.20
2018-05-16T16:04:09.500Z,21.37
2018-05-16T16:06:36.309Z,23.83
2018-05-16T16:09:02.968Z,19.97
2018-05-16T16:11:29.651Z,21.93
2018-05-16T16:13:56.345Z,21.87
2018-05-16T16:16:23.717Z,18.67
2018-05-16T16:18:50.534Z,16.83
2018-05-16T16:21:17.190Z,16.37
2018-05-16T16:23:44.229Z,16.23
2018-05-16T16:26:10.981Z,24.63
2018-05-16T16:28:37.677Z,22.97
2018-05-16T16:31:05.108Z,20.73
2018-05-16T16:33:31.914Z,20.70
2018-05-16T16:35:58.734Z,22.93
2018-05-16T16:38:25.406Z,18.63
2018-05-16T16:40:52.079Z,25.70
2018-05-16T16:43:18.777Z,18.70
2018-05-16T16:45:45.456Z,21.13
2018-05-16T16:48:12.889Z,22.60
2018-05-16T16:50:39.611Z,22.07
2018-05-16T16:53:07.467Z,22.93
2018-05-16T16:55:34.216Z,15.60
2018-05-16T16:58:00.845Z,19.37
2018-05-16T17:00:27.889Z,19.60
2018-05-16T17:02:54.569Z,21.80
2018-05-16T17:05:21.237Z,18.23
2018-05-16T17:07:49.022Z,23.17
2018-05-16T17:10:16.473Z,24.00
2018-05-16T17:12:43.183Z,19.67
2018-05-16T17:15:10.010Z,25.43
2018-05-16T17:17:38.277Z,21.63
2018-05-16T17:20:05.016Z,23.10
2018-05-16T17:22:31.685Z,25.80
2018-05-16T17:24:58.388Z,26.37
2018-05-16T17:27:25.136Z,22.63
2018-05-16T17:29:51.755Z,20.93
2018-05-16T17:32:18.525Z,25.73
2018-05-16T17:34:45.249Z,18.30
2018-05-16T17:37:11.937Z,16.97
2018-05-16T17:39:39.356Z,27.93
2018-05-16T17:42:06.075Z,21.77
2018-05-16T17:44:32.774Z,25.67
2018-05-16T17:47:00.221Z,24.53
2018-05-16T17:49:26.896Z,20.10
2018-05-16T17:51:53.712Z,20.70
2018-05-16T17:54:20.400Z,21.73
2018-05-16T17:56:47.982Z,22.73
2018-05-16T17:59:14.710Z,18.50
2018-05-16T18:01:41.387Z,19.97
2018-05-16T18:04:08.101Z,20.63
2018-05-16T18:06:34.969Z,21.60
2018-05-16T18:09:01.862Z,18.17
2018-05-16T18:11:28.629Z,19.17
2018-05-16T18:17:25.090Z,17.90
2018-05-16T18:19:51.742Z,18.57
2018-05-16T18:22:18.415Z,15.07
2018-05-16T18:24:45.822Z,23.93
2018-05-16T18:27:12.630Z,18.40
2018-05-16T18:29:39.310Z,20.30
2018-05-16T18:32:06.014Z,21.43
2018-05-16T18:34:32.698Z,13.57
2018-05-16T18:36:59.438Z,18.30
2018-05-16T18:39:26.340Z,17.13
2018-05-16T18:41:53.163Z,17.20
2018-05-16T18:44:19.824Z,16.07
2018-05-16T18:46:46.543Z,17.37
2018-05-16T18:49:13.252Z,19.00
2018-05-16T18:51:39.833Z,17.53
2018-05-16T18:54:06.649Z,18.17
2018-05-16T18:56:34.202Z,22.43
2018-05-16T18:59:01.938Z,15.13
2018-05-16T19:01:28.686Z,22.97
2018-05-16T19:03:55.371Z,16.80
2018-05-16T19:06:22.176Z,17.23
2018-05-16T19:08:48.979Z,18.47
2018-05-16T19:11:15.680Z,14.93
2018-05-16T19:13:43.105Z,15.30
2018-05-16T19:16:09.816Z,16.83
2018-05-16T19:18:36.567Z,16.17
2018-05-16T19:21:03.481Z,13.80
2018-05-16T19:23:30.199Z,17.90
2018-05-16T19:25:57.765Z,18.00
2018-05-16T19:28:25.284Z,15.80
2018-05-16T19:30:51.990Z,18.90
2018-05-16T19:33:18.734Z,16.03
2018-05-16T19:35:45.500Z,21.60
2018-05-16T19:38:12.205Z,16.27
2018-05-16T19:40:39.057Z,16.60
2018-05-16T19:43:05.705Z,15.80
2018-05-16T19:45:33.142Z,21.90
2018-05-16T19:47:59.921Z,17.20
2018-05-16T19:50:26.685Z,19.43
2018-05-16T19:52:53.548Z,19.07
2018-05-16T19:55:21.716Z,24.90
2018-05-16T19:57:49.260Z,20.10
2018-05-16T20:00:15.946Z,21.23
2018-05-16T20:02:42.606Z,17.90
2018-05-16T20:05:09.301Z,23.70
2018-05-16T20:07:36.872Z,22.23
2018-05-16T20:10:03.823Z,16.50
2018-05-16T20:12:30.448Z,21.73
2018-05-16T20:14:57.862Z,16.53
2018-05-16T20:17:24.668Z,17.33
2018-05-16T20:19:51.328Z,16.23
2018-05-16T20:22:17.990Z,18.00
2018-05-16T20:24:44.693Z,22.10
2018-05-16T20:27:11.457Z,17.67
2018-05-16T20:29:38.217Z,14.27
2018-05-16T20:32:04.859Z,23.40
2018-05-16T20:34:31.743Z,20.97
2018-05-16T20:36:58.413Z,18.40
2018-05-16T20:39:25.271Z,24.90
2018-05-16T20:41:51.984Z,14.67
2018-05-16T20:44:18.701Z,26.03
2018-05-16T20:46:45.367Z,18.07
2018-05-16T20:49:12.006Z,21.80
2018-05-16T20:51:38.685Z,25.80
2018-05-16T20:54:05.327Z,20.53
2018-05-16T20:56:32.129Z,24.17
2018-05-16T20:58:59.027Z,18.17
2018-05-16T21:01:25.669Z,17.53
2018-05-16T21:03:53.071Z,19.53
2018-05-16T21:06:19.735Z,17.17
2018-05-16T21:08:46.422Z,19.70
2018-05-16T21:11:13.125Z,17.07
2018-05-16T21:13:39.994Z,21.10
2018-05-16T21:16:06.673Z,23.83
2018-05-16T21:18:33.388Z,24.13
2018-05-16T21:21:00.228Z,25.40
2018-05-16T21:23:26.995Z,30.40
2018-05-16T21:25:53.621Z,19.97
2018-05-16T21:28:20.479Z,23.13
2018-05-16T21:30:47.154Z,23.67
2018-05-16T21:33:13.853Z,24.33
2018-05-16T21:35:40.504Z,27.10
2018-05-16T21:38:07.217Z,29.00
2018-05-16T21:40:33.881Z,23.30
2018-05-16T21:43:00.540Z,18.43
2018-05-16T21:45:27.178Z,21.40
2018-05-16T21:47:53.851Z,17.50
2018-05-16T21:50:21.216Z,22.03
2018-05-16T21:52:47.887Z,22.93
2018-05-16T21:55:14.735Z,29.50
2018-05-16T21:57:41.532Z,21.80
2018-05-16T22:00:09.103Z,25.47
2018-05-16T22:02:35.745Z,34.30
2018-05-16T22:05:02.569Z,26.57
2018-05-16T22:07:30.060Z,18.13
2018-05-16T22:09:56.917Z,19.17
2018-05-16T22:12:23.564Z,26.30
2018-05-16T22:14:50.369Z,21.77
2018-05-16T22:17:17.032Z,23.77
2018-05-16T22:19:43.834Z,20.50
2018-05-16T22:22:11.433Z,31.20
2018-05-16T22:24:38.061Z,21.13
2018-05-16T22:27:04.812Z,21.80
2018-05-16T22:29:31.470Z,23.60
2018-05-16T22:32:04.163Z,23.80
2018-05-16T22:34:37.585Z,23.23
2018-05-16T22:37:11.134Z,21.83
2018-05-16T22:39:43.970Z,21.80
2018-05-16T22:42:17.060Z,22.07
2018-05-16T22:47:45.469Z,24.17
2018-05-16T22:50:12.956Z,28.37
2018-05-16T22:52:39.588Z,20.03
2018-05-16T22:55:06.319Z,20.40
2018-05-16T22:57:33.007Z,27.27
2018-05-16T23:00:00.396Z,24.53
2018-05-16T23:02:27.924Z,26.20
2018-05-16T23:04:54.542Z,29.20
2018-05-16T23:07:21.402Z,22.93
2018-05-16T23:09:48.070Z,23.40
2018-05-16T23:12:15.460Z,22.80
2018-05-16T23:14:42.162Z,23.20
2018-05-16T23:17:09.524Z,21.93
2018-05-16T23:19:36.920Z,24.70
2018-05-16T23:22:03.651Z,26.13
2018-05-16T23:24:30.265Z,24.70
2018-05-16T23:26:57.659Z,25.30
2018-05-16T23:29:24.424Z,35.60
2018-05-16T23:31:51.098Z,29.07
2018-05-16T23:34:18.487Z,21.97
2018-05-16T23:36:45.180Z,23.90
2018-05-16T23:39:11.818Z,20.40
2018-05-16T23:41:38.443Z,25.90
2018-05-16T23:44:05.823Z,24.27
2018-05-16T23:46:33.248Z,16.37
2018-05-16T23:48:59.883Z,20.77
2018-05-16T23:51:26.512Z,21.13
2018-05-16T23:53:53.193Z,21.53
2018-05-16T23:56:20.672Z,24.17
2018-05-16T23:58:47.308Z,24.87
